Time;durP1;ratioP1;P1;durP2;ratioP2;P2;SDS_P1;SDS_P2;PMS_P1;PMS_P2;Temp;Humidity;BMP_temperature;BMP_pressure;BME280_temperature;BME280_humidity;BME280_pressure;Samples;Min_cycle;Max_cycle;Signal;HPM_P1;HPM_P2
2022/04/11 00:02:03;;;;;;;7.37;2.80;;;0.30;74.10;;;;;;5058129;28;20032;-71
2022/04/11 00:04:29;;;;;;;6.95;2.67;;;0.30;74.20;;;;;;5056850;28;20165;-71
2022/04/11 00:06:55;;;;;;;5.27;2.50;;;0.30;74.20;;;;;;5065981;28;20040;-71
2022/04/11 00:09:20;;;;;;;5.10;2.73;;;0.20;74.30;;;;;;5055683;28;20043;-71
2022/04/11 00:11:49;;;;;;;9.23;3.30;;;0.20;74.30;;;;;;5057512;28;20047;-71
2022/04/11 00:14:15;;;;;;;4.28;2.50;;;0.20;74.40;;;;;;5036259;28;20036;-71
2022/04/11 00:16:41;;;;;;;5.73;2.67;;;0.20;74.50;;;;;;5041438;28;20040;-71
2022/04/11 00:19:08;;;;;;;6.93;2.40;;;0.20;74.60;;;;;;5047964;28;20303;-71
2022/04/11 00:21:34;;;;;;;3.88;2.15;;;0.20;74.50;;;;;;5020941;28;20489;-71
2022/04/11 00:24:00;;;;;;;4.60;2.10;;;0.20;74.40;;;;;;5060902;28;20041;-71
2022/04/11 00:26:26;;;;;;;11.97;5.00;;;0.20;74.40;;;;;;5060337;28;20044;-71
2022/04/11 00:28:53;;;;;;;10.47;5.20;;;0.20;74.30;;;;;;5050316;28;20105;-71
2022/04/11 00:31:19;;;;;;;12.27;7.18;;;0.20;74.30;;;;;;5038110;28;20057;-71
2022/04/11 00:33:44;;;;;;;13.20;6.23;;;0.20;74.30;;;;;;5057386;28;20420;-71
2022/04/11 00:36:10;;;;;;;7.00;3.73;;;0.20;74.30;;;;;;5039575;28;20043;-71
2022/04/11 00:38:36;;;;;;;8.23;4.00;;;0.20;74.40;;;;;;5029540;28;20143;-71
2022/04/11 00:41:02;;;;;;;9.00;3.90;;;0.20;74.50;;;;;;5048882;28;20044;-71
2022/04/11 00:43:39;;;;;;;8.67;3.60;;;0.30;74.30;;;;;;5038791;28;20040;-71
2022/04/11 00:46:07;;;;;;;4.72;3.20;;;0.30;74.30;;;;;;5041080;28;20032;-71
2022/04/11 00:48:33;;;;;;;8.50;3.40;;;0.30;74.60;;;;;;5062961;28;20154;-71
2022/04/11 00:51:11;;;;;;;4.95;2.55;;;0.30;74.50;;;;;;5046326;28;20133;-71
2022/04/11 00:53:42;;;;;;;4.90;2.60;;;0.20;74.60;;;;;;5062009;28;20496;-71
2022/04/11 00:56:11;;;;;;;6.95;3.00;;;0.20;74.70;;;;;;5060719;28;20513;-71
2022/04/11 00:58:38;;;;;;;3.63;2.38;;;0.20;74.70;;;;;;5055536;28;20052;-71
2022/04/11 01:01:05;;;;;;;4.55;2.78;;;0.20;74.70;;;;;;5037669;28;20512;-71
2022/04/11 01:03:32;;;;;;;6.75;3.20;;;0.20;74.80;;;;;;5050890;28;20052;-71
2022/04/11 01:05:58;;;;;;;5.07;3.22;;;0.10;74.90;;;;;;5036206;28;20036;-71
2022/04/11 01:08:24;;;;;;;7.07;3.53;;;0.10;74.90;;;;;;5060409;28;20177;-71
2022/04/11 01:10:51;;;;;;;8.07;3.50;;;0.10;75.00;;;;;;5031365;28;20503;-71
2022/04/11 01:13:17;;;;;;;8.75;3.75;;;0.10;75.10;;;;;;5040313;28;20307;-71
2022/04/11 01:16:12;;;;;;;6.03;3.70;;;0.10;75.20;;;;;;5031740;28;20029;-71
2022/04/11 01:18:39;;;;;;;6.85;3.38;;;0.20;75.20;;;;;;5030057;28;20076;-71
2022/04/11 01:21:08;;;;;;;6.78;3.33;;;0.10;75.20;;;;;;5038311;28;20036;-71
2022/04/11 01:23:34;;;;;;;6.60;3.60;;;0.10;75.20;;;;;;5052915;28;20512;-71
2022/04/11 01:26:01;;;;;;;8.20;4.17;;;0.10;75.30;;;;;;5039432;28;20075;-71
2022/04/11 01:28:27;;;;;;;8.23;3.50;;;0.10;75.30;;;;;;5063646;28;20052;-71
2022/04/11 01:30:54;;;;;;;6.30;3.78;;;0.10;75.20;;;;;;5032013;28;20097;-71
2022/04/11 01:33:27;;;;;;;6.30;3.55;;;0.00;75.20;;;;;;5036558;28;20028;-71
2022/04/11 01:35:52;;;;;;;8.75;3.85;;;0.00;75.30;;;;;;5044002;28;20531;-71
2022/04/11 01:38:19;;;;;;;7.37;4.03;;;0.00;75.40;;;;;;5028878;28;20036;-71
2022/04/11 01:40:48;;;;;;;7.05;3.70;;;0.00;75.40;;;;;;5030109;28;20098;-71
2022/04/11 01:43:14;;;;;;;5.85;3.63;;;0.00;75.40;;;;;;5064238;28;20703;-71
2022/04/11 01:45:39;;;;;;;5.97;3.83;;;0.00;75.50;;;;;;5040395;28;20122;-71
2022/04/11 01:48:05;;;;;;;8.43;3.17;;;0.00;75.60;;;;;;5061954;28;20317;-71
2022/04/11 01:50:31;;;;;;;10.50;4.13;;;0.00;75.70;;;;;;5041039;28;20559;-71
2022/04/11 01:53:04;;;;;;;5.73;3.23;;;0.00;75.70;;;;;;5048241;28;20046;-71
2022/04/11 01:55:30;;;;;;;6.10;3.78;;;0.10;75.80;;;;;;5053016;28;20370;-70
2022/04/11 01:57:56;;;;;;;7.70;3.33;;;0.10;75.70;;;;;;5030358;28;20039;-70
2022/04/11 02:00:21;;;;;;;5.53;3.30;;;0.10;75.70;;;;;;5033330;28;20087;-70
2022/04/11 02:02:47;;;;;;;7.20;3.30;;;0.10;75.90;;;;;;5047219;28;20064;-70
2022/04/11 02:05:13;;;;;;;8.07;4.00;;;0.10;75.80;;;;;;5046668;28;20060;-70
2022/04/11 02:07:38;;;;;;;7.43;3.57;;;0.10;75.90;;;;;;5053713;28;20060;-70
2022/04/11 02:10:05;;;;;;;8.50;3.83;;;0.10;75.90;;;;;;5043082;28;20032;-70
2022/04/11 02:12:30;;;;;;;6.22;3.60;;;0.10;76.00;;;;;;5050872;28;20040;-70
2022/04/11 02:14:56;;;;;;;7.53;3.53;;;0.10;76.10;;;;;;5037971;28;20051;-70
2022/04/11 02:17:22;;;;;;;6.32;4.32;;;0.10;76.20;;;;;;5061270;28;20048;-70
2022/04/11 02:19:48;;;;;;;5.93;3.43;;;0.10;76.20;;;;;;5061327;28;20046;-70
2022/04/11 02:22:13;;;;;;;9.97;3.77;;;0.20;76.30;;;;;;5038328;28;20040;-71
2022/04/11 02:24:39;;;;;;;6.87;3.50;;;0.20;76.40;;;;;;5037415;28;20135;-71
2022/04/11 02:27:05;;;;;;;5.90;3.80;;;0.20;76.40;;;;;;5048156;28;20035;-71
2022/04/11 02:29:30;;;;;;;8.17;3.87;;;0.20;76.40;;;;;;5036077;28;20048;-71
2022/04/11 02:31:56;;;;;;;6.97;3.57;;;0.20;76.60;;;;;;5048702;28;20496;-71
2022/04/11 02:34:25;;;;;;;9.50;3.80;;;0.20;76.40;;;;;;5021777;28;20408;-71
2022/04/11 02:36:50;;;;;;;6.88;3.90;;;0.20;76.50;;;;;;5021853;28;20492;-71
2022/04/11 02:39:16;;;;;;;8.87;4.20;;;0.20;76.50;;;;;;5050169;28;20041;-71
2022/04/11 02:41:42;;;;;;;6.57;4.00;;;0.20;76.60;;;;;;5047391;28;20669;-71
2022/04/11 02:44:08;;;;;;;7.30;3.70;;;0.20;76.70;;;;;;5041924;28;20062;-71
2022/04/11 02:46:33;;;;;;;5.23;3.40;;;0.20;76.80;;;;;;5037543;28;20072;-71
2022/04/11 02:48:59;;;;;;;8.30;4.30;;;0.20;76.80;;;;;;5023226;28;20044;-71
2022/04/11 02:51:25;;;;;;;8.20;4.00;;;0.20;76.90;;;;;;5014040;28;20044;-71
2022/04/11 02:53:51;;;;;;;7.20;3.50;;;0.20;76.90;;;;;;5039416;28;20046;-71
2022/04/11 02:56:16;;;;;;;5.27;3.43;;;0.20;76.90;;;;;;5061256;28;20592;-71
2022/04/11 02:58:42;;;;;;;6.47;3.70;;;0.20;77.00;;;;;;5059970;28;20097;-71
2022/04/11 03:01:08;;;;;;;7.13;3.90;;;0.20;77.00;;;;;;5051661;28;20078;-71
2022/04/11 03:03:36;;;;;;;6.97;4.00;;;0.20;77.10;;;;;;5054863;28;20056;-71
2022/04/11 03:06:02;;;;;;;9.55;3.95;;;0.20;77.20;;;;;;5066831;28;20043;-71
2022/04/11 03:08:28;;;;;;;6.95;4.18;;;0.20;77.30;;;;;;5052842;28;20047;-71
2022/04/11 03:10:54;;;;;;;8.27;4.10;;;0.20;77.50;;;;;;5039243;28;20425;-71
2022/04/11 03:13:20;;;;;;;8.70;3.85;;;0.30;77.60;;;;;;5040998;28;20622;-71
2022/04/11 03:15:46;;;;;;;4.93;3.75;;;0.30;78.00;;;;;;5051931;28;20048;-71
2022/04/11 03:18:12;;;;;;;5.13;3.43;;;0.30;77.90;;;;;;5065863;28;20076;-71
2022/04/11 03:20:38;;;;;;;12.10;4.60;;;0.40;77.90;;;;;;5066015;28;20548;-71
2022/04/11 03:23:03;;;;;;;5.00;3.20;;;0.40;78.00;;;;;;5033897;28;20527;-71
2022/04/11 03:25:29;;;;;;;9.20;4.20;;;0.50;77.90;;;;;;5048885;28;20036;-71
2022/04/11 03:27:55;;;;;;;7.00;3.70;;;0.50;78.00;;;;;;5049193;28;20492;-71
2022/04/11 03:30:21;;;;;;;8.77;4.13;;;0.60;78.00;;;;;;5039523;28;20049;-71
2022/04/11 03:32:47;;;;;;;7.63;3.45;;;0.60;78.00;;;;;;5047520;28;20044;-71
2022/04/11 03:35:13;;;;;;;7.40;3.47;;;0.70;78.20;;;;;;5026534;28;20040;-71
2022/04/11 03:37:38;;;;;;;4.93;3.37;;;0.80;78.10;;;;;;5061116;28;20512;-71
2022/04/11 03:40:06;;;;;;;7.37;3.77;;;0.80;78.10;;;;;;5033003;28;20132;-71
2022/04/11 03:42:32;;;;;;;7.72;3.60;;;0.90;78.10;;;;;;5051404;28;20436;-71
2022/04/11 03:44:58;;;;;;;6.87;3.73;;;1.00;78.10;;;;;;5032212;28;20052;-71
2022/04/11 03:47:24;;;;;;;9.23;3.73;;;1.00;78.20;;;;;;5034104;28;20043;-71
2022/04/11 03:49:49;;;;;;;6.70;3.10;;;1.10;78.10;;;;;;5044061;28;20047;-71
2022/04/11 03:52:15;;;;;;;9.43;3.67;;;1.20;78.00;;;;;;5057376;28;20044;-71
2022/04/11 03:54:41;;;;;;;7.47;3.27;;;1.20;78.10;;;;;;5032896;28;20040;-71
2022/04/11 03:57:06;;;;;;;5.40;3.07;;;1.30;77.90;;;;;;5052076;28;20055;-71
2022/04/11 03:59:32;;;;;;;7.83;2.80;;;1.30;77.80;;;;;;5048240;28;20036;-71
2022/04/11 04:01:58;;;;;;;10.50;2.97;;;1.40;77.60;;;;;;5056660;28;20043;-71
2022/04/11 04:04:23;;;;;;;9.73;3.13;;;1.40;77.50;;;;;;5033912;28;20044;-71
2022/04/11 04:06:49;;;;;;;4.87;2.73;;;1.50;77.30;;;;;;5032805;28;20507;-71
2022/04/11 04:09:15;;;;;;;7.37;2.73;;;1.50;77.20;;;;;;5066104;28;20040;-71
2022/04/11 04:11:40;;;;;;;4.93;3.27;;;1.60;77.00;;;;;;5032295;28;20107;-71
2022/04/11 04:14:06;;;;;;;5.27;2.90;;;1.60;76.90;;;;;;5030190;28;20544;-71
2022/04/11 04:16:32;;;;;;;8.43;3.10;;;1.60;76.90;;;;;;5019069;28;20515;-71
2022/04/11 04:18:58;;;;;;;7.40;3.07;;;1.60;76.80;;;;;;5050877;28;20044;-71
2022/04/11 04:21:23;;;;;;;9.05;3.55;;;1.70;76.60;;;;;;5032093;28;20032;-71
2022/04/11 04:23:49;;;;;;;6.97;3.07;;;1.70;76.60;;;;;;5030368;28;20051;-71
2022/04/11 04:26:15;;;;;;;5.07;2.93;;;1.70;76.60;;;;;;5057594;28;20032;-71
2022/04/11 04:28:40;;;;;;;5.60;2.87;;;1.70;76.40;;;;;;5045368;28;20345;-71
2022/04/11 04:31:06;;;;;;;7.07;2.60;;;1.70;76.40;;;;;;5044063;28;20048;-71
2022/04/11 04:33:32;;;;;;;6.60;2.73;;;1.80;76.30;;;;;;5054645;28;20044;-71
2022/04/11 04:35:57;;;;;;;4.43;2.90;;;1.80;76.10;;;;;;5043663;28;20085;-71
2022/04/11 04:38:23;;;;;;;5.63;2.83;;;1.80;76.10;;;;;;5035524;28;20041;-71
2022/04/11 04:40:49;;;;;;;5.80;2.60;;;1.80;76.10;;;;;;5063833;28;20115;-71
2022/04/11 04:43:14;;;;;;;3.70;2.37;;;1.80;76.00;;;;;;5062423;28;20032;-71
2022/04/11 04:45:40;;;;;;;10.17;2.87;;;1.80;76.00;;;;;;5055181;28;20140;-71
2022/04/11 04:48:06;;;;;;;5.00;2.63;;;1.90;75.90;;;;;;5037792;28;20404;-71
2022/04/11 04:50:32;;;;;;;7.72;2.55;;;1.80;75.90;;;;;;5050680;28;20049;-71
2022/04/11 04:53:00;;;;;;;11.40;2.72;;;1.90;75.90;;;;;;5052971;28;20360;-71
2022/04/11 04:55:26;;;;;;;5.22;2.20;;;1.90;75.80;;;;;;5066363;28;20048;-71
2022/04/11 04:57:51;;;;;;;7.53;2.63;;;1.90;75.90;;;;;;5034493;28;20063;-71
2022/04/11 05:00:17;;;;;;;5.30;2.57;;;1.90;75.70;;;;;;5038821;28;20461;-71
2022/04/11 05:02:43;;;;;;;7.43;3.07;;;2.00;75.60;;;;;;5036062;28;20051;-71
2022/04/11 05:05:11;;;;;;;5.10;2.80;;;2.00;75.80;;;;;;5042355;28;20036;-71
2022/04/11 05:07:37;;;;;;;4.93;2.33;;;2.00;75.70;;;;;;5023237;28;20098;-71
2022/04/11 05:10:06;;;;;;;5.47;2.63;;;2.00;75.70;;;;;;5059858;28;20032;-71
2022/04/11 05:12:43;;;;;;;4.38;2.55;;;2.00;75.60;;;;;;5042499;28;20067;-71
2022/04/11 05:15:09;;;;;;;6.20;2.45;;;2.10;75.60;;;;;;5042945;28;20094;-71
2022/04/11 05:17:35;;;;;;;4.35;2.70;;;2.10;75.60;;;;;;5039801;28;20131;-71
2022/04/11 05:20:01;;;;;;;6.13;2.60;;;2.10;75.60;;;;;;5046370;28;20225;-71
2022/04/11 05:22:27;;;;;;;6.45;2.65;;;2.20;75.60;;;;;;5055712;28;20082;-71
2022/04/11 05:24:53;;;;;;;6.10;2.53;;;2.20;75.60;;;;;;5055739;28;20441;-71
2022/04/11 05:27:18;;;;;;;6.13;2.43;;;2.20;75.50;;;;;;5052918;28;20040;-71
2022/04/11 05:29:44;;;;;;;5.93;2.63;;;2.20;75.50;;;;;;5031099;28;20075;-71
2022/04/11 05:32:09;;;;;;;7.63;2.80;;;2.30;75.30;;;;;;5038825;28;20093;-71
2022/04/11 05:34:35;;;;;;;5.23;2.60;;;2.30;75.30;;;;;;5058588;28;20046;-71
2022/04/11 05:37:01;;;;;;;6.30;2.67;;;2.30;75.20;;;;;;5031245;28;20381;-71
2022/04/11 05:39:26;;;;;;;6.53;2.53;;;2.30;75.20;;;;;;5042756;28;20127;-71
2022/04/11 05:41:52;;;;;;;4.83;2.40;;;2.40;75.20;;;;;;5053592;28;20132;-71
2022/04/11 05:44:18;;;;;;;6.50;2.40;;;2.40;75.20;;;;;;5056973;28;20055;-71
2022/04/11 05:46:45;;;;;;;4.93;2.33;;;2.40;75.00;;;;;;5051492;28;20072;-72
2022/04/11 05:49:10;;;;;;;7.60;2.63;;;2.40;75.10;;;;;;5032882;28;20434;-71
2022/04/11 05:51:36;;;;;;;8.60;3.10;;;2.40;75.00;;;;;;5034261;28;20052;-71
2022/04/11 05:54:02;;;;;;;6.30;2.40;;;2.50;75.00;;;;;;5059851;28;20109;-71
2022/04/11 05:56:27;;;;;;;5.07;2.50;;;2.50;75.00;;;;;;5049382;28;20054;-71
2022/04/11 05:58:53;;;;;;;5.30;2.60;;;2.50;75.10;;;;;;5048533;28;20048;-71
2022/04/11 06:01:19;;;;;;;4.00;2.17;;;2.60;75.00;;;;;;5024334;28;20669;-71
2022/04/11 06:03:44;;;;;;;9.27;2.50;;;2.60;75.00;;;;;;5058491;28;20473;-71
2022/04/11 06:06:10;;;;;;;7.33;2.53;;;2.70;75.00;;;;;;5034548;28;20612;-71
2022/04/11 06:08:36;;;;;;;6.83;2.83;;;2.70;75.00;;;;;;5020296;28;20047;-71
2022/04/11 06:11:01;;;;;;;5.47;2.13;;;2.80;75.00;;;;;;5039860;28;20044;-71
2022/04/11 06:13:27;;;;;;;5.40;2.43;;;2.90;75.00;;;;;;5051508;28;20443;-71
2022/04/11 06:15:55;;;;;;;4.70;2.93;;;3.00;74.90;;;;;;5036765;28;20110;-71
2022/04/11 06:18:21;;;;;;;5.95;2.95;;;3.00;74.80;;;;;;5041335;28;20040;-71
2022/04/11 06:20:47;;;;;;;6.83;2.73;;;3.10;74.70;;;;;;5029212;28;20085;-71
2022/04/11 06:23:12;;;;;;;8.47;2.60;;;3.20;74.50;;;;;;5027363;28;20490;-71
2022/04/11 06:25:38;;;;;;;5.33;2.50;;;3.30;74.60;;;;;;5036749;28;20070;-72
2022/04/11 06:28:04;;;;;;;6.07;2.57;;;3.40;74.40;;;;;;5032677;28;20068;-71
2022/04/11 06:30:29;;;;;;;7.53;2.43;;;3.40;74.50;;;;;;5046974;28;20055;-71
2022/04/11 06:32:55;;;;;;;5.27;2.43;;;3.50;74.40;;;;;;5065957;28;20142;-71
2022/04/11 06:35:21;;;;;;;6.97;2.40;;;3.60;74.30;;;;;;5028454;28;20132;-72
2022/04/11 06:37:46;;;;;;;5.93;2.43;;;3.70;74.20;;;;;;5068613;28;20040;-71
2022/04/11 06:40:12;;;;;;;5.57;2.20;;;3.80;74.10;;;;;;5050692;28;20035;-72
2022/04/11 06:42:38;;;;;;;4.97;2.43;;;3.90;74.00;;;;;;5036460;28;20044;-71
2022/04/11 06:45:04;;;;;;;4.87;2.53;;;4.00;74.00;;;;;;5029941;28;20105;-71
2022/04/11 06:47:31;;;;;;;5.53;2.33;;;4.10;73.80;;;;;;5057020;28;20079;-72
2022/04/11 06:49:56;;;;;;;4.75;2.40;;;4.20;73.60;;;;;;5046222;28;20120;-72
2022/04/11 06:52:22;;;;;;;4.67;2.40;;;4.30;73.40;;;;;;5040779;28;20131;-72
2022/04/11 06:54:48;;;;;;;5.33;2.23;;;4.30;73.20;;;;;;5049425;28;20052;-71
2022/04/11 06:57:13;;;;;;;5.23;2.83;;;4.30;72.90;;;;;;5007185;28;20043;-71
2022/04/11 06:59:39;;;;;;;5.60;2.40;;;4.40;73.10;;;;;;5012983;28;20040;-72
2022/04/11 07:02:05;;;;;;;4.97;2.60;;;4.50;73.10;;;;;;5038690;28;20037;-73
2022/04/11 07:04:30;;;;;;;6.00;2.53;;;4.60;73.10;;;;;;4987413;28;1116399;-72
2022/04/11 07:06:56;;;;;;;5.60;2.53;;;4.70;73.10;;;;;;5054250;28;20851;-72
2022/04/11 07:09:22;;;;;;;4.67;2.40;;;4.70;73.00;;;;;;5048660;28;20075;-71
2022/04/11 07:11:47;;;;;;;7.03;2.70;;;4.80;72.70;;;;;;5038847;28;20045;-72
2022/04/11 07:14:13;;;;;;;6.17;2.47;;;4.90;72.90;;;;;;5035065;28;20048;-72
2022/04/11 07:16:39;;;;;;;5.80;2.37;;;5.00;72.90;;;;;;5060045;28;20040;-72
2022/04/11 07:19:06;;;;;;;7.45;2.97;;;5.20;72.90;;;;;;5047274;28;20033;-72
2022/04/11 07:21:32;;;;;;;5.22;2.65;;;5.30;72.70;;;;;;5041734;28;20435;-72
2022/04/11 07:23:58;;;;;;;5.47;2.35;;;5.40;72.50;;;;;;5055765;28;20457;-72
2022/04/11 07:26:24;;;;;;;4.20;2.53;;;5.60;72.70;;;;;;5034872;28;20049;-72
2022/04/11 07:28:50;;;;;;;5.27;2.67;;;5.70;72.70;;;;;;5032871;28;20108;-72
2022/04/11 07:31:16;;;;;;;6.27;2.40;;;5.80;71.60;;;;;;5028525;28;20128;-72
2022/04/11 07:33:42;;;;;;;5.73;2.20;;;5.90;71.70;;;;;;5034559;28;20405;-72
2022/04/11 07:36:07;;;;;;;5.13;2.73;;;6.00;71.70;;;;;;5051782;28;20044;-72
2022/04/11 07:38:33;;;;;;;4.77;2.43;;;6.20;71.60;;;;;;5024374;28;20568;-72
2022/04/11 07:40:59;;;;;;;6.73;2.60;;;6.30;71.60;;;;;;5035823;28;20041;-72
2022/04/11 07:43:24;;;;;;;4.63;2.53;;;6.40;71.20;;;;;;5055762;28;20037;-72
2022/04/11 07:45:50;;;;;;;4.57;2.57;;;6.60;71.10;;;;;;5028189;28;20103;-72
2022/04/11 07:48:16;;;;;;;7.57;2.80;;;6.70;71.00;;;;;;5044267;28;20547;-72
2022/04/11 07:50:42;;;;;;;6.83;2.60;;;6.90;71.10;;;;;;5039128;28;20055;-72
2022/04/11 07:53:07;;;;;;;7.47;2.40;;;7.00;71.00;;;;;;5050574;28;20205;-72
2022/04/11 07:55:33;;;;;;;5.97;2.57;;;7.20;70.20;;;;;;5041576;28;20040;-72
2022/04/11 07:58:00;;;;;;;7.03;3.08;;;7.30;69.90;;;;;;5040876;28;20420;-72
2022/04/11 08:00:25;;;;;;;5.13;2.50;;;7.50;70.20;;;;;;5043878;28;20072;-73
2022/04/11 08:02:52;;;;;;;4.33;2.30;;;7.60;69.50;;;;;;5045608;28;20087;-72
2022/04/11 08:05:19;;;;;;;7.85;2.65;;;7.80;69.10;;;;;;5051133;28;20518;-72
2022/04/11 08:07:46;;;;;;;7.20;2.70;;;7.90;69.00;;;;;;5062225;28;20400;-72
2022/04/11 08:10:13;;;;;;;7.68;2.58;;;8.10;68.90;;;;;;5058623;28;20058;-72
2022/04/11 08:12:40;;;;;;;7.68;2.92;;;8.30;68.70;;;;;;5062604;28;20493;-72
2022/04/11 08:15:06;;;;;;;6.53;2.47;;;8.50;68.20;;;;;;5032955;28;20050;-72
2022/04/11 08:17:32;;;;;;;7.15;3.17;;;8.70;68.10;;;;;;5028277;28;20090;-72
2022/04/11 08:19:58;;;;;;;5.10;2.60;;;8.80;67.50;;;;;;5040334;28;20063;-72
2022/04/11 08:22:23;;;;;;;4.93;2.33;;;8.90;67.30;;;;;;5052791;28;20040;-72
2022/04/11 08:24:49;;;;;;;7.73;2.77;;;9.00;67.30;;;;;;5041904;28;20039;-72
2022/04/11 08:27:15;;;;;;;5.87;2.83;;;9.00;66.60;;;;;;5041383;28;20036;-72
2022/04/11 08:29:41;;;;;;;6.90;2.35;;;9.00;66.60;;;;;;5041360;28;20044;-72
2022/04/11 08:32:07;;;;;;;4.53;2.67;;;9.00;66.10;;;;;;5019171;28;20436;-72
2022/04/11 08:34:32;;;;;;;5.37;2.30;;;8.90;66.60;;;;;;5043241;28;20036;-72
2022/04/11 08:36:58;;;;;;;4.63;2.90;;;8.80;66.70;;;;;;5048226;28;20722;-72
2022/04/11 08:39:24;;;;;;;5.37;2.67;;;8.80;67.30;;;;;;5028267;28;20052;-72
2022/04/11 08:41:52;;;;;;;6.40;2.77;;;8.90;67.30;;;;;;5024452;28;20036;-72
2022/04/11 08:44:19;;;;;;;5.28;2.63;;;8.90;66.70;;;;;;5056984;28;20039;-72
2022/04/11 08:46:46;;;;;;;5.40;3.20;;;9.00;67.10;;;;;;5026631;28;20065;-72
2022/04/11 08:49:11;;;;;;;5.45;2.88;;;9.10;67.00;;;;;;5017023;28;20117;-72
2022/04/11 08:51:37;;;;;;;3.77;2.30;;;9.20;66.20;;;;;;5046467;28;20040;-72
2022/04/11 08:54:05;;;;;;;6.03;2.33;;;9.30;66.30;;;;;;5046709;28;20040;-72
2022/04/11 08:56:31;;;;;;;5.97;2.70;;;9.30;65.90;;;;;;5052493;28;20862;-72
2022/04/11 08:58:58;;;;;;;6.03;2.70;;;9.40;66.20;;;;;;5044350;28;20079;-72
2022/04/11 09:01:24;;;;;;;3.90;2.05;;;9.50;65.10;;;;;;5040934;28;20051;-72
2022/04/11 09:03:50;;;;;;;7.80;2.30;;;9.70;64.40;;;;;;5060755;28;20138;-72
2022/04/11 09:06:17;;;;;;;4.47;2.13;;;9.70;63.00;;;;;;5031854;28;20119;-72
2022/04/11 09:08:52;;;;;;;5.65;1.92;;;9.80;62.60;;;;;;5062186;28;20799;-72
2022/04/11 09:11:35;;;;;;;8.57;2.35;;;9.90;61.10;;;;;;5058971;28;20056;-72
2022/04/11 09:14:03;;;;;;;4.70;2.40;;;10.00;60.00;;;;;;5052793;28;20032;-72
2022/04/11 09:16:42;;;;;;;5.20;2.10;;;10.10;60.20;;;;;;5035901;28;20054;-72
2022/04/11 09:19:18;;;;;;;6.30;2.38;;;10.20;60.20;;;;;;5060723;28;20568;-72
2022/04/11 09:21:44;;;;;;;3.97;1.70;;;10.30;60.20;;;;;;5054494;28;20489;-72
2022/04/11 09:24:20;;;;;;;3.70;1.53;;;10.40;59.80;;;;;;5031784;28;20043;-73
2022/04/11 09:26:47;;;;;;;3.80;1.27;;;10.50;59.00;;;;;;5024360;28;20042;-73
2022/04/11 09:29:15;;;;;;;4.80;1.52;;;10.60;56.80;;;;;;5059456;28;20048;-73
2022/04/11 09:31:41;;;;;;;4.32;1.83;;;10.70;56.30;;;;;;5062938;28;20139;-73
2022/04/11 09:34:21;;;;;;;5.30;1.55;;;10.80;56.80;;;;;;5062364;28;20047;-73
2022/04/11 09:36:56;;;;;;;2.50;1.35;;;10.90;56.40;;;;;;5056734;28;20068;-73
2022/04/11 09:39:23;;;;;;;4.25;1.30;;;11.10;54.60;;;;;;5053156;28;20040;-73
2022/04/11 09:41:51;;;;;;;4.93;2.03;;;11.20;55.70;;;;;;5050464;28;20131;-73
2022/04/11 09:44:24;;;;;;;4.00;1.42;;;11.30;54.60;;;;;;5040435;28;20098;-74
2022/04/11 09:46:52;;;;;;;4.13;1.60;;;11.40;55.60;;;;;;5051093;28;20102;-73
2022/04/11 09:49:19;;;;;;;4.00;1.67;;;11.50;55.80;;;;;;5051898;28;20471;-73
2022/04/11 09:52:09;;;;;;;5.80;2.13;;;11.70;55.80;;;;;;5060437;28;20386;-73
2022/04/11 09:54:44;;;;;;;7.22;2.22;;;11.80;53.80;;;;;;5040591;28;20040;-73
2022/04/11 09:57:17;;;;;;;4.32;1.88;;;11.90;54.90;;;;;;5044962;28;20438;-73
2022/04/11 09:59:45;;;;;;;3.13;1.60;;;12.00;54.40;;;;;;5048039;28;20136;-73
2022/04/11 10:02:12;;;;;;;5.28;1.65;;;12.00;53.70;;;;;;5044683;28;20039;-73
2022/04/11 10:04:39;;;;;;;4.28;2.17;;;12.10;52.60;;;;;;5049452;28;20055;-73
2022/04/11 10:07:09;;;;;;;3.22;2.03;;;12.20;52.00;;;;;;5058475;28;20044;-73
2022/04/11 10:09:39;;;;;;;4.67;1.83;;;12.30;52.20;;;;;;5057238;28;20544;-73
2022/04/11 10:12:05;;;;;;;3.88;1.55;;;12.40;50.80;;;;;;5056773;28;20306;-73
2022/04/11 10:14:31;;;;;;;7.27;2.33;;;12.50;51.30;;;;;;5037950;28;20512;-73
2022/04/11 10:17:02;;;;;;;3.10;1.80;;;12.60;50.10;;;;;;5044866;28;20305;-73
2022/04/11 10:19:30;;;;;;;7.22;1.48;;;12.60;49.20;;;;;;5057479;28;20828;-73
2022/04/11 10:21:59;;;;;;;4.00;1.53;;;12.60;48.10;;;;;;5060911;28;20036;-73
2022/04/11 10:24:58;;;;;;;3.35;1.85;;;12.70;48.50;;;;;;5064350;28;20294;-73
2022/04/11 10:27:25;;;;;;;4.47;2.00;;;12.80;47.60;;;;;;5055068;28;20036;-73
2022/04/11 10:29:53;;;;;;;4.20;2.50;;;12.90;46.80;;;;;;5065831;28;20357;-73
2022/04/11 10:32:21;;;;;;;3.40;2.07;;;12.80;45.10;;;;;;5038788;28;21132;-73
2022/04/11 10:35:03;;;;;;;4.13;2.27;;;12.80;46.40;;;;;;5053522;28;20330;-73
2022/04/11 10:37:38;;;;;;;5.70;2.57;;;12.90;47.50;;;;;;5058782;28;20300;-73
2022/04/11 10:40:16;;;;;;;5.28;2.15;;;13.00;46.10;;;;;;5033597;28;20311;-73
2022/04/11 10:43:00;;;;;;;3.80;2.03;;;13.00;45.70;;;;;;5035260;28;20067;-73
2022/04/11 10:45:30;;;;;;;4.93;2.27;;;13.00;46.00;;;;;;5038336;28;20306;-73
2022/04/11 10:47:55;;;;;;;5.23;2.37;;;13.00;45.30;;;;;;5054678;28;20301;-73
2022/04/11 10:50:23;;;;;;;3.87;2.10;;;13.10;45.60;;;;;;5043793;28;20469;-73
2022/04/11 10:53:06;;;;;;;5.10;2.20;;;13.10;45.50;;;;;;5035048;28;20039;-73
2022/04/11 10:55:32;;;;;;;6.47;2.80;;;13.20;45.40;;;;;;5057062;28;20357;-73
2022/04/11 10:58:00;;;;;;;5.37;2.30;;;13.20;46.60;;;;;;5035379;28;20663;-73
2022/04/11 11:00:29;;;;;;;3.93;2.10;;;13.40;46.70;;;;;;5030304;28;20036;-73
2022/04/11 11:03:02;;;;;;;7.23;2.60;;;13.50;45.40;;;;;;5042458;28;20306;-73
2022/04/11 11:05:38;;;;;;;7.90;3.07;;;13.50;46.00;;;;;;5056762;28;20334;-73
2022/04/11 11:08:09;;;;;;;10.50;4.20;;;13.50;44.80;;;;;;5052330;28;20306;-73
2022/04/11 11:10:38;;;;;;;7.13;3.63;;;13.60;44.00;;;;;;5059914;28;20304;-73
2022/04/11 11:13:32;;;;;;;5.87;3.73;;;13.60;44.00;;;;;;5062647;28;20654;-73
2022/04/11 11:16:07;;;;;;;5.70;3.27;;;13.70;43.20;;;;;;5052906;28;20310;-73
2022/04/11 11:18:51;;;;;;;5.90;3.43;;;13.70;44.90;;;;;;5030942;28;20302;-73
2022/04/11 11:21:32;;;;;;;7.87;3.37;;;13.70;43.50;;;;;;5053668;28;20816;-73
2022/04/11 11:24:12;;;;;;;6.03;3.73;;;13.70;44.50;;;;;;5062870;28;20527;-73
2022/04/11 11:26:52;;;;;;;8.07;3.70;;;13.80;45.10;;;;;;5044552;28;20343;-73
2022/04/11 11:29:25;;;;;;;7.37;3.47;;;14.00;45.30;;;;;;5060795;28;20306;-74
2022/04/11 11:31:52;;;;;;;7.63;4.37;;;14.10;45.80;;;;;;5063146;28;20306;-74
2022/04/11 11:34:20;;;;;;;7.53;3.87;;;14.20;45.90;;;;;;5061738;28;20333;-73
2022/04/11 11:36:47;;;;;;;6.03;3.90;;;14.40;46.40;;;;;;5030238;28;20317;-73
2022/04/11 11:39:17;;;;;;;8.23;4.57;;;14.50;45.20;;;;;;5039499;28;20810;-73
2022/04/11 11:41:47;;;;;;;8.97;4.70;;;14.50;45.00;;;;;;5033319;28;20381;-73
2022/04/11 11:44:13;;;;;;;7.67;5.03;;;14.60;45.20;;;;;;5041917;28;20305;-73
2022/04/11 11:46:55;;;;;;;7.83;5.40;;;14.60;43.90;;;;;;5059810;28;20329;-73
2022/04/11 11:49:22;;;;;;;8.53;4.87;;;14.50;43.10;;;;;;5056922;28;20051;-73
2022/04/11 11:51:48;;;;;;;11.37;6.10;;;14.60;43.90;;;;;;5030892;28;20352;-73
2022/04/11 11:54:30;;;;;;;11.63;8.20;;;14.50;43.30;;;;;;5067373;28;20649;-73
2022/04/11 11:56:56;;;;;;;12.63;8.00;;;14.50;43.20;;;;;;5058461;28;20751;-73
2022/04/11 11:59:22;;;;;;;13.73;8.87;;;14.50;42.60;;;;;;5062595;28;20912;-73
2022/04/11 12:04:18;;;;;;;12.40;8.03;;;14.50;43.10;;;;;;5061263;28;20493;-73
2022/04/11 12:04:39;;;;;;;11.87;7.80;;;14.50;42.20;;;;;;5060819;28;20791;-73
2022/04/11 12:07:08;;;;;;;12.40;9.23;;;14.50;43.60;;;;;;5058512;28;20305;-73
2022/04/11 12:09:39;;;;;;;14.97;10.83;;;14.60;43.20;;;;;;5055363;28;20392;-73
2022/04/11 12:12:08;;;;;;;10.93;9.20;;;14.70;41.90;;;;;;5044981;28;20692;-73
2022/04/11 12:15:14;;;;;;;10.23;8.17;;;14.70;43.10;;;;;;5054691;28;20328;-73
2022/04/11 12:17:46;;;;;;;9.23;7.82;;;14.80;42.80;;;;;;4955297;28;20306;-73
2022/04/11 12:20:19;;;;;;;10.73;8.43;;;14.90;43.80;;;;;;4938399;28;20066;-73
2022/04/11 12:23:12;;;;;;;13.97;8.20;;;14.80;42.00;;;;;;5010108;28;20303;-73
2022/04/11 12:25:50;;;;;;;10.33;7.40;;;14.80;41.80;;;;;;5035903;28;20306;-73
2022/04/11 12:28:21;;;;;;;9.93;7.73;;;14.80;43.10;;;;;;5049003;28;20286;-73
2022/04/11 12:31:13;;;;;;;10.87;8.80;;;15.00;43.30;;;;;;5059704;28;20302;-73
2022/04/11 12:33:46;;;;;;;10.33;8.00;;;15.20;43.40;;;;;;5040148;28;20381;-73
2022/04/11 12:36:16;;;;;;;11.30;8.07;;;15.20;42.80;;;;;;5065099;28;20727;-73
2022/04/11 12:38:42;;;;;;;9.50;7.80;;;15.30;42.90;;;;;;5045966;28;20301;-73
2022/04/11 12:41:29;;;;;;;10.23;7.30;;;15.40;41.70;;;;;;5038867;28;20824;-73
2022/04/11 12:44:16;;;;;;;11.10;8.20;;;15.40;42.60;;;;;;5062598;28;20042;-73
2022/04/11 12:47:06;;;;;;;11.93;7.80;;;15.40;41.50;;;;;;5061681;28;20285;-73
2022/04/11 12:49:48;;;;;;;10.07;7.30;;;15.40;42.90;;;;;;5038037;28;20829;-73
2022/04/11 12:52:16;;;;;;;10.60;7.50;;;15.50;43.20;;;;;;5064565;28;20281;-73
2022/04/11 12:54:48;;;;;;;11.47;7.47;;;15.50;43.20;;;;;;5038550;28;20381;-73
2022/04/11 12:57:24;;;;;;;10.67;7.27;;;15.60;43.10;;;;;;5035619;28;20290;-73
2022/04/11 12:59:52;;;;;;;10.80;7.13;;;15.70;42.70;;;;;;5061122;28;20302;-73